Estación de Petorca

Ultimos registro cada 15 minutos 59
Estación Fecha / Hora Temperatura Humedad Lluvia Velocidad Dirección Radiación Presion
59 Petorca 05-05-2026 14:30 21,1 54,6 0 4 226 561,9 982,1
58 Petorca 05-05-2026 14:15 20,9 54,7 0 4 225 580,6 982,1
57 Petorca 05-05-2026 14:00 21,7 53,2 0 4 226 600,6 982,2
56 Petorca 05-05-2026 13:45 21 54,3 0 3,5 226 619,4 982,4
55 Petorca 05-05-2026 13:30 21 53,1 0 3,5 233 633,1 982,5
54 Petorca 05-05-2026 13:15 21 52,7 0 3,5 237 644,4 982,1
53 Petorca 05-05-2026 13:00 21,4 51,1 0 3 232 665,6 982,1
52 Petorca 05-05-2026 12:45 20,5 52,8 0 3 232 438,1 982,4
51 Petorca 05-05-2026 12:30 20,3 51,8 0 3,5 236 434,4 982,4
50 Petorca 05-05-2026 12:15 21,2 48,2 0 3 234 511,9 982,5
49 Petorca 05-05-2026 12:00 21,4 47 0 3 229 480,6 982,6
48 Petorca 05-05-2026 11:45 21,4 45,6 0 3 220 398,1 982,7
47 Petorca 05-05-2026 11:30 20,8 46,6 0 2,5 218 538,1 982,6
46 Petorca 05-05-2026 11:15 21,8 37,4 0 0,5 209 743,1 982,9
45 Petorca 05-05-2026 11:00 22,2 34,4 0 0 219 580,6 982,9
44 Petorca 05-05-2026 10:45 21 36,1 0 0 205 545,6 982,8
43 Petorca 05-05-2026 10:30 21,1 35,8 0 0 300 519,4 982,5
42 Petorca 05-05-2026 10:15 19,3 39,5 0 0 237 480,6 982,9
41 Petorca 05-05-2026 10:00 18,3 41,9 0 0 213 444,4 983,1
40 Petorca 05-05-2026 09:45 17 44,5 0 0 197 403,1 983,2
39 Petorca 05-05-2026 09:30 16,1 46,6 0 0 202 364,4 983,3
38 Petorca 05-05-2026 09:15 14,4 50,6 0 0 209 319,4 983,2
37 Petorca 05-05-2026 09:00 13,4 53,1 0 0 218 274,4 983,3
36 Petorca 05-05-2026 08:45 12,9 55,9 0 0 184 231,9 983
35 Petorca 05-05-2026 08:30 10,3 62,8 0 0 32 180,6 982,9
34 Petorca 05-05-2026 08:15 8,5 69,7 0 0 31 50,6 983
33 Petorca 05-05-2026 08:00 7,6 71 0 0 20 36,9 983
32 Petorca 05-05-2026 07:45 7,4 73 0 0 38 11,9 983,1
31 Petorca 05-05-2026 07:30 6,9 72,3 0 0 28 3,1 983
30 Petorca 05-05-2026 07:15 7,7 71,1 0 0 56 0,6 982,7
29 Petorca 05-05-2026 07:00 7,8 71,4 0 0 34 0,6 982,9
28 Petorca 05-05-2026 06:45 7,6 71,2 0 0 340 0,6 982,8
27 Petorca 05-05-2026 06:30 7,9 68,8 0 0 143 0,6 982,6
26 Petorca 05-05-2026 06:15 8,2 70 0 0 39 0,6 982,6
25 Petorca 05-05-2026 06:00 6,6 74 0 0 21 0,6 982,6
24 Petorca 05-05-2026 05:45 6,7 73,4 0 0 18 0,6 982,6
23 Petorca 05-05-2026 05:30 7,3 73,5 0 0 303 0,6 982,5
22 Petorca 05-05-2026 05:15 7,5 72,1 0 0 105 0,6 982,5
21 Petorca 05-05-2026 05:00 6,9 71,1 0 0 25 0,6 982,3
20 Petorca 05-05-2026 04:45 6,6 75,3 0 0 358 0,6 982,2
19 Petorca 05-05-2026 04:30 6,5 70,9 0 0 345 0,6 982,2
18 Petorca 05-05-2026 04:15 7,3 72 0 0 323 0,6 982
17 Petorca 05-05-2026 04:00 7,2 67,3 0 0 25 0,6 982,1
16 Petorca 05-05-2026 03:45 7,5 66,1 0 0 17 0,6 982
15 Petorca 05-05-2026 03:30 7,4 66,7 0 0 27 0,6 982
14 Petorca 05-05-2026 03:15 7,3 68,3 0 0 17 0,6 982
13 Petorca 05-05-2026 03:00 7,1 70,9 0 0 15 0,6 982,3
12 Petorca 05-05-2026 02:45 7,6 71,7 0 0 29 0,6 982,6
11 Petorca 05-05-2026 02:30 7,9 69,5 0 0 13 0,6 982,7
10 Petorca 05-05-2026 02:15 7,5 69,8 0 0 28 0,6 982,9
9 Petorca 05-05-2026 02:00 8,8 65,8 0 0 39 0,6 982,9
8 Petorca 05-05-2026 01:45 8,8 66,2 0 0 321 0,6 983,2
7 Petorca 05-05-2026 01:30 9,5 63 0 0 324 0,6 983,1
6 Petorca 05-05-2026 01:15 10,1 60,9 0 0 8 0,6 983,3
5 Petorca 05-05-2026 01:00 10,2 60,3 0 0 38 0,6 983,2
4 Petorca 05-05-2026 00:45 9,8 63,8 0 0 27 0,6 983,2
3 Petorca 05-05-2026 00:30 9,5 66,1 0 0 345 0,6 983,3
2 Petorca 05-05-2026 00:15 10,3 65,3 0 0 337 0,6 983,5
1 Petorca 05-05-2026 00:00 11,1 58,2 0 0 14 0,6 983,4